Aérodrome :
LOGIN :

S'inscrire | Disclaimer

   EN    FR    IT 

 










Légende :    VFR   VFR Marginal   IFR   IFR Intensif   IFR Très Intensif
Visi : 
Plafond : 
>= 8 km
>= 3000ft
5 à 8 km
1000 à 3000 ft
1500m à 5 km
500 à 1000 ft
800 à 1500m
200 à 500 ft
< 800m
< 200 ft
Symboles :   Orages  Brouillard  Fortes neiges  Fortes précipitations  Vent > 20 kt
SIGMETs :   Divers  Orages  Givrage  Turbulence  Onde Orograph.  Cendres Volcan.






- Altitude de l'aérodrome : 146 ft
- Code IATA : RKE


EKRK - Roskilde Tune

DERNIER METAR :
  • 180320Z AUTO 24011KT 9999 BKN017/// BKN047/// 06/04 Q1005

METARs EXPIRÉS :
  • 180250Z AUTO 23011KT 9999 SCT017/// BKN050/// 06/04 Q1005
  • 180220Z AUTO 23011KT 9999 BKN019/// OVC053/// 06/05 Q1005
  • 180150Z AUTO 23012KT 9999 -RA BKN014/// OVC040/// 06/05 Q1004
  • 180120Z AUTO 23011KT 9999 OVC011/// 06/04 Q1005
  • 180050Z AUTO 23012KT 9999 OVC014/// 06/05 Q1004

TAF TAF EKRK
Valide du 18 à 03h jusqu'au 18 à 12h UTC


180229Z 1803/1812 24015KT 9999 BKN030
TEMPO 1803/1805 -SHRA BKN012 SCT020TCU
TEMPO 1805/1810 24015G26KT FEW020TCU
TEMPO 1810/1812 25020G30KT 4000 SHRAGS BKN012 BKN020CB



MET'MAP, la Météo Aéronautique d'un coup d'oeil ! - Copyright ORBIFLY Décembre 2007 - Disclaimer

ORBIFLY MET'MAP TEAM :

Programmation & Développement : Alexandra Zaïnal
Sur une idée originale de : Baudouin d'Aumeries
Assistance à la programmation : Marc-Olivier Méhu
Soutien technique & logistique : Manuel Goepfert

Contact : metmap@orbifly.com




SOURCES & CREDITS :

   NOAA